Lähimpiä lentokenttien sääasemia

 

EFHK - Helsinki/Vantaa, Finland
Ilmasuunta ja etäisyys Sääasema Lakkasuosta: IKO 25km
Päivitetty: 16/11/2018 08:20
Light drizzle, Vaihtelevaa
Light drizzle, Vaihtelevaa
 Tuulen suunta ELO
Tuuli: ELO 28 km/h
Lämpötila: 9°C
Hyytävyys: 6°C
Kastepiste: 8°C
Kosteus: 94%
Ilmanpaine: 1033 hPa
Yhteenveto: Light Drizzle
Pilvet: Vaihtelevaa
Näkyvyys: 5 km
Pilvitiedot: Vaihtelevaa 122 m
2018/11/16 06:20 EFHK 160620Z 21015KT 4500 -DZ OVC004 09/08 Q1033 BECMG 9999 BKN006
EFHF - Helsinki/Malmi, Finland
Ilmasuunta ja etäisyys Sääasema Lakkasuosta: I 29km
Päivitetty: 06/03/2017 17:50
NOT Current
Selkeätä
Selkeätä
 Tuulen suunta KO
Tuuli: KO 11 km/h
Lämpötila: -2°C
Hyytävyys: -6°C
Kastepiste: -11°C
Kosteus: 51%
Ilmanpaine: 1021 hPa
Yhteenveto: Selkeätä
Näkyvyys: enemmän kuin 10 km
2017/03/06 15:50 EFHF 061550Z 04006KT 330V100 CAVOK M02/M11 Q1021
 
EETN - Tallinn, Estonia
Ilmasuunta ja etäisyys Sääasema Lakkasuosta: E 97km
Päivitetty: 16/11/2018 08:20
Vaihtelevaa
Vaihtelevaa
 Tuulen suunta ELO
Tuuli: ELO 22 km/h
Lämpötila: 8°C
Hyytävyys: 4°C
Kastepiste: 6°C
Kosteus: 87%
Ilmanpaine: 1035 hPa
Pilvet: Vaihtelevaa
Näkyvyys: 10 km
Pilvitiedot: Vaihtelevaa 274 m
2018/11/16 06:20 EETN 160620Z 21012KT 9999 OVC009 08/06 Q1035 R08/19//95 NOSIG
EFTU - Turku/Abo, Finland
Ilmasuunta ja etäisyys Sääasema Lakkasuosta: LLU 127km
Päivitetty: 16/11/2018 08:20
Vaihtelevaa
Vaihtelevaa
 Tuulen suunta LO
Tuuli: LO 15 km/h
Lämpötila: 8°C
Hyytävyys: 5°C
Kastepiste: 8°C
Kosteus: 100%
Ilmanpaine: 1032 hPa
Pilvet: Vaihtelevaa
Näkyvyys: 10 km
Pilvitiedot: Vaihtelevaa 183 m
2018/11/16 06:20 EFTU 160620Z AUTO 22008KT 9999 OVC006/// 08/08 Q1032
 
EFTP - Tampere/Pirkkala, Finland
Ilmasuunta ja etäisyys Sääasema Lakkasuosta: PLU 138km
Päivitetty: 16/11/2018 08:20
Light drizzle, Enimmäkseen pilvistä
Light drizzle, Enimmäkseen pilvistä
 Tuulen suunta ELO
Tuuli: ELO 13 km/h
Lämpötila: 8°C
Hyytävyys: 6°C
Kastepiste: 8°C
Kosteus: 100%
Ilmanpaine: 1031 hPa
Yhteenveto: Light Drizzle
Pilvet: Enimmäkseen pilvistä
Näkyvyys: 6 km
Pilvitiedot: Osittain pilvistä 122 m
Enimmäkseen pilvistä 213 m
2018/11/16 06:20 EFTP 160620Z 20007KT 6000 -DZ FEW004 BKN007 08/08 Q1031
EFPO - Pori (mil/Civ), Finland
Ilmasuunta ja etäisyys Sääasema Lakkasuosta: LU 199km
Päivitetty: 16/11/2018 08:20
Vaihtelevaa
Vaihtelevaa
 Tuulen suunta ELO
Tuuli: ELO 17 km/h
Lämpötila: 9°C
Hyytävyys: 7°C
Kastepiste: 8°C
Kosteus: 94%
Ilmanpaine: 1030 hPa
Pilvet: Vaihtelevaa
Näkyvyys: 10 km
Pilvitiedot: Vaihtelevaa 244 m
2018/11/16 06:20 EFPO 160620Z AUTO 21009KT 180V240 9999 OVC008/// 09/08 Q1030
 
EFLP - Lappeenranta, Finland
Ilmasuunta ja etäisyys Sääasema Lakkasuosta: IKO 216km
Päivitetty: 16/11/2018 08:20
Vaihtelevaa
Vaihtelevaa
 Tuulen suunta ELO
Tuuli: ELO 13 km/h
Lämpötila: 7°C
Hyytävyys: 5°C
Kastepiste: 6°C
Kosteus: 93%
Ilmanpaine: 1032 hPa
Pilvet: Vaihtelevaa
Näkyvyys: 9 km
Pilvitiedot: Vaihtelevaa 122 m
2018/11/16 06:20 EFLP 160620Z AUTO 21007KT 160V240 9000 OVC004 07/06 Q1032
EFMI - Mikkeli, Finland
Ilmasuunta ja etäisyys Sääasema Lakkasuosta: KO 220km
Päivitetty: 16/11/2018 08:20
Mist, Vaihtelevaa
Mist, Vaihtelevaa
 Tuulen suunta ELO
Tuuli: ELO 11 km/h
Lämpötila: 8°C
Hyytävyys: 6°C
Kastepiste: 7°C
Kosteus: 93%
Ilmanpaine: 1031 hPa
Yhteenveto: Mist
Pilvet: Vaihtelevaa
Näkyvyys: 3 km
Pilvitiedot: Vaihtelevaa 152 m
2018/11/16 06:20 EFMI 160620Z AUTO 21006KT 180V260 3400 BR OVC005 08/07 Q1031
 
EFJY - Jyvaskyla (mil/C, Finland
Ilmasuunta ja etäisyys Sääasema Lakkasuosta: PKO 245km
Päivitetty: 16/11/2018 08:20
Light drizzle, Enimmäkseen pilvistä
Light drizzle, Enimmäkseen pilvistä
 Tuulen suunta ELO
Tuuli: ELO 7 km/h
Lämpötila: 8°C
Hyytävyys: 7°C
Kastepiste: 7°C
Kosteus: 93%
Ilmanpaine: 1028 hPa
Yhteenveto: Light Drizzle
Pilvet: Enimmäkseen pilvistä
Näkyvyys: 8 km
Pilvitiedot: Puolipilvistä 152 m
Enimmäkseen pilvistä 213 m
2018/11/16 06:20 EFJY 160620Z 20004KT 140V250 8000 -DZ SCT005 BKN007 08/07 Q1028
EFMA - Mariehamn/Aland, Finland
Ilmasuunta ja etäisyys Sääasema Lakkasuosta: L 257km
Päivitetty: 16/11/2018 08:20
Selkeätä
Selkeätä
 Tuulen suunta LO
Tuuli: LO 15 km/h
Lämpötila: 9°C
Hyytävyys: 7°C
Kastepiste: 6°C
Kosteus: 82%
Ilmanpaine: 1032 hPa
Yhteenveto: Selkeätä
Näkyvyys: enemmän kuin 10 km
2018/11/16 06:20 EFMA 160620Z AUTO 22008KT 190V270 CAVOK 09/06 Q1032
 
EFVR - Varkaus, Finland
Ilmasuunta ja etäisyys Sääasema Lakkasuosta: KO 277km
Päivitetty: 15/04/2016 08:50
NOT Current
Selkeätä
Selkeätä
 Tuulen suunta PLU
Tuuli: PLU 15 km/h
Lämpötila: -1°C
Hyytävyys: -6°C
Kastepiste: -8°C
Kosteus: 59%
Ilmanpaine: 1005 hPa
Yhteenveto: Selkeätä
Näkyvyys: enemmän kuin 10 km
2016/04/15 05:50 EFVR 150550Z AUTO 33008KT CAVOK M01/M08 Q1005
EFSI - Seinajoki-Ilmajo, Finland
Ilmasuunta ja etäisyys Sääasema Lakkasuosta: PLU 285km
Päivitetty: 16/11/2018 08:20
Vaihtelevaa
Vaihtelevaa
 Tuulen suunta ELO
Tuuli: ELO 19 km/h
Lämpötila: 9°C
Hyytävyys: 6°C
Kastepiste: 9°C
Kosteus: 100%
Ilmanpaine: 1026 hPa
Pilvet: Vaihtelevaa
Näkyvyys: 7 km
Pilvitiedot: Puolipilvistä 183 m
Enimmäkseen pilvistä 274 m
Vaihtelevaa 335 m
2018/11/16 06:20 EFSI 160620Z AUTO 20010KT 140V260 7000 SCT006 BKN009 OVC011 09/09 Q1026
 
KSJC - San Jose, California, USA
Ilmasuunta ja etäisyys Sääasema Lakkasuosta: PLU 8758km
Päivitetty: 16/11/2018 07:53
Haze, Vaihtelevaa
Haze, Vaihtelevaa
 Tuulen suunta KA
Tuuli: KA 6 km/h
Lämpötila: 9°C
Kastepiste: -1°C
Kosteus: 50%
Ilmanpaine: 1017.9 hPa
Yhteenveto: Haze
Pilvet: Vaihtelevaa
Näkyvyys: 2 km
Pilvitiedot: Osittain pilvistä 30 m
Enimmäkseen pilvistä 610 m
Vaihtelevaa 914 m
2018/11/16 05:53 KSJC 160553Z 14003KT 2 1/2SM HZ FEW001 BKN020 OVC030 09/M01 A3006 RMK AO2 SLP180 FU FEW001 FU BKN020 FU OVC030 T00941006 10172 20094 58002